Time;durP1;ratioP1;P1;durP2;ratioP2;P2;SDS_P1;SDS_P2;PMS_P1;PMS_P2;Temp;Humidity;BMP_temperature;BMP_pressure;BME280_temperature;BME280_humidity;BME280_pressure;Samples;Min_cycle;Max_cycle;Signal;HPM_P1;HPM_P2
2022/01/19 00:01:29;;;;;;;6.27;4.93;;;4.70;99.90;;;;;;5059814;28;21158;-39
2022/01/19 00:03:55;;;;;;;6.37;5.20;;;4.80;99.90;;;;;;5063900;28;20431;-40
2022/01/19 00:06:21;;;;;;;7.13;6.37;;;4.50;99.90;;;;;;5068964;28;20185;-39
2022/01/19 00:08:47;;;;;;;5.60;4.97;;;4.70;99.90;;;;;;5069537;28;20431;-39
2022/01/19 00:11:12;;;;;;;7.27;5.30;;;4.60;99.90;;;;;;5068929;28;20440;-39
2022/01/19 00:13:39;;;;;;;7.13;5.20;;;4.60;99.90;;;;;;5072753;28;20446;-41
2022/01/19 00:16:05;;;;;;;5.10;4.57;;;4.70;99.90;;;;;;5079857;28;20189;-39
2022/01/19 00:18:31;;;;;;;6.47;4.80;;;4.70;99.90;;;;;;5061962;28;20446;-41
2022/01/19 00:20:57;;;;;;;6.10;5.20;;;4.40;99.90;;;;;;5068404;28;20466;-40
2022/01/19 00:23:24;;;;;;;7.93;5.80;;;4.40;99.90;;;;;;5069493;28;20204;-40
2022/01/19 00:25:52;;;;;;;6.40;5.00;;;4.30;99.90;;;;;;5068924;28;20503;-39
2022/01/19 00:28:18;;;;;;;6.00;5.10;;;4.20;99.90;;;;;;5069187;28;20929;-40
2022/01/19 00:30:44;;;;;;;5.70;5.10;;;4.20;99.90;;;;;;5066468;28;20423;-40
2022/01/19 00:33:10;;;;;;;8.23;5.70;;;4.20;99.90;;;;;;5061485;28;20431;-39
2022/01/19 00:35:36;;;;;;;7.43;5.17;;;4.20;99.90;;;;;;5068768;28;20431;-40
2022/01/19 00:38:04;;;;;;;8.43;5.43;;;4.00;99.90;;;;;;5069069;28;20489;-39
2022/01/19 00:40:30;;;;;;;5.93;5.20;;;4.00;99.90;;;;;;5068338;28;20459;-40
2022/01/19 00:42:55;;;;;;;5.70;4.90;;;4.20;99.90;;;;;;5068892;28;20425;-40
2022/01/19 00:45:22;;;;;;;6.63;5.70;;;3.90;99.90;;;;;;5068577;28;20477;-40
2022/01/19 00:47:48;;;;;;;7.87;5.43;;;4.10;99.90;;;;;;5055004;28;20195;-39
2022/01/19 00:50:17;;;;;;;5.00;4.27;;;3.90;99.90;;;;;;5068009;28;20820;-42
2022/01/19 00:52:43;;;;;;;5.57;4.47;;;3.90;99.90;;;;;;5068484;28;20485;-40
2022/01/19 00:55:11;;;;;;;6.80;4.40;;;4.00;99.90;;;;;;5068649;28;20431;-39
2022/01/19 00:57:37;;;;;;;7.17;5.00;;;4.10;99.90;;;;;;5068014;28;20227;-39
2022/01/19 01:00:05;;;;;;;8.13;6.10;;;4.10;99.90;;;;;;5067522;28;20470;-39
2022/01/19 01:02:31;;;;;;;7.40;5.10;;;4.20;99.90;;;;;;5058788;28;20440;-39
2022/01/19 01:04:57;;;;;;;5.87;4.83;;;4.20;99.90;;;;;;5068656;28;20473;-39
2022/01/19 01:07:23;;;;;;;6.77;4.50;;;4.40;99.90;;;;;;5068240;28;20913;-39
2022/01/19 01:09:49;;;;;;;6.40;4.37;;;4.10;99.90;;;;;;5067858;28;20201;-39
2022/01/19 01:12:22;;;;;;;6.97;4.80;;;3.90;99.90;;;;;;5068340;28;20189;-39
2022/01/19 01:20:19;;;;;;;7.40;5.10;;;4.20;99.90;;;;;;5067524;28;20908;-39
2022/01/19 01:22:45;;;;;;;9.37;5.30;;;4.10;99.90;;;;;;5068094;28;20619;-39
2022/01/19 01:25:11;;;;;;;6.43;5.10;;;4.20;99.90;;;;;;5067768;28;20918;-40
2022/01/19 01:27:37;;;;;;;6.80;5.20;;;4.10;99.90;;;;;;5068053;28;20423;-40
2022/01/19 01:30:05;;;;;;;8.40;5.00;;;4.50;99.90;;;;;;5067598;28;20806;-39
2022/01/19 01:32:31;;;;;;;8.67;5.40;;;4.50;99.90;;;;;;5057830;28;20822;-39
2022/01/19 01:34:56;;;;;;;6.33;5.30;;;4.50;99.90;;;;;;5067718;28;20430;-39
2022/01/19 01:37:22;;;;;;;6.83;4.90;;;4.20;99.90;;;;;;5067986;28;20201;-39
2022/01/19 01:39:48;;;;;;;6.97;5.53;;;4.30;99.90;;;;;;5066822;28;20193;-39
2022/01/19 01:42:17;;;;;;;6.43;5.70;;;3.80;99.90;;;;;;5066526;28;20193;-40
2022/01/19 01:44:47;;;;;;;10.33;6.80;;;3.60;99.90;;;;;;5067923;28;20438;-39
2022/01/19 01:47:14;;;;;;;10.63;6.37;;;3.60;99.90;;;;;;5066060;28;20450;-40
2022/01/19 01:54:58;;;;;;;9.40;6.20;;;3.40;99.90;;;;;;5067551;28;20824;-39
2022/01/19 01:57:23;;;;;;;7.73;6.20;;;3.50;99.90;;;;;;5065869;28;20459;-40
2022/01/19 01:59:49;;;;;;;10.40;6.63;;;3.40;99.90;;;;;;5066681;28;20431;-39
2022/01/19 02:02:15;;;;;;;8.40;6.30;;;3.60;99.90;;;;;;5082144;28;20674;-42
2022/01/19 02:04:42;;;;;;;9.90;6.90;;;3.60;99.90;;;;;;5064785;28;20439;-39
2022/01/19 02:09:48;;;;;;;9.77;6.87;;;3.50;99.90;;;;;;5066611;28;20643;-40
2022/01/19 02:23:05;;;;;;;6.67;5.77;;;4.40;99.90;;;;;;5066703;28;20797;-41
2022/01/19 02:25:37;;;;;;;7.57;6.10;;;4.60;99.90;;;;;;5066928;28;20835;-39
2022/01/19 02:41:37;;;;;;;9.63;6.50;;;4.80;99.90;;;;;;5066182;28;20531;-39
2022/01/19 02:44:04;;;;;;;8.50;6.47;;;4.70;99.90;;;;;;5066905;28;20463;-40
2022/01/19 02:49:19;;;;;;;8.03;6.83;;;5.00;99.90;;;;;;5056877;28;20522;-39
2022/01/19 02:51:48;;;;;;;8.40;7.40;;;4.70;99.90;;;;;;5058191;28;20489;-40
2022/01/19 02:54:21;;;;;;;11.07;6.70;;;5.00;99.90;;;;;;5066962;28;20462;-39
2022/01/19 02:56:51;;;;;;;7.23;6.30;;;4.80;99.90;;;;;;5070506;28;20489;-39
2022/01/19 02:59:25;;;;;;;8.47;7.13;;;4.80;99.90;;;;;;5064418;28;20852;-40
2022/01/19 03:10:04;;;;;;;8.10;7.03;;;5.10;99.90;;;;;;5068496;28;20497;-39
2022/01/19 03:12:30;;;;;;;8.40;7.20;;;4.80;99.90;;;;;;5070282;28;20998;-39
2022/01/19 03:14:56;;;;;;;7.73;6.90;;;5.00;99.90;;;;;;5084223;28;20469;-39
2022/01/19 03:17:22;;;;;;;7.60;6.83;;;5.00;99.90;;;;;;5080699;28;20850;-39
2022/01/19 03:19:49;;;;;;;7.47;6.40;;;5.00;99.90;;;;;;5066111;28;20423;-39
2022/01/19 03:22:16;;;;;;;11.13;7.23;;;5.20;99.90;;;;;;5070485;28;20434;-39
2022/01/19 03:24:49;;;;;;;8.17;7.37;;;5.20;99.90;;;;;;5070383;28;20836;-40
2022/01/19 03:27:15;;;;;;;7.67;6.63;;;4.90;99.90;;;;;;5070284;28;20511;-39
2022/01/19 03:29:41;;;;;;;9.27;7.27;;;4.90;99.90;;;;;;5068131;28;20576;-40
2022/01/19 03:32:07;;;;;;;7.70;6.50;;;5.00;99.90;;;;;;5067602;28;20446;-40
2022/01/19 03:34:33;;;;;;;7.57;6.73;;;5.00;99.90;;;;;;5062801;28;20189;-39
2022/01/19 03:36:58;;;;;;;7.50;6.60;;;4.80;99.90;;;;;;5070263;28;20788;-39
2022/01/19 03:39:24;;;;;;;9.77;6.67;;;4.90;99.90;;;;;;5070333;28;20200;-40
2022/01/19 03:41:50;;;;;;;7.77;7.00;;;4.90;99.90;;;;;;5069222;28;20256;-39
2022/01/19 03:44:15;;;;;;;8.40;6.60;;;5.00;99.90;;;;;;5069738;28;20185;-39
2022/01/19 03:46:59;;;;;;;6.40;5.80;;;5.00;99.90;;;;;;5070058;28;20304;-39
2022/01/19 03:49:27;;;;;;;9.70;7.10;;;4.90;99.90;;;;;;5060446;28;20181;-39
2022/01/19 03:51:59;;;;;;;6.67;6.07;;;5.00;99.90;;;;;;5069167;28;20514;-39
2022/01/19 03:54:26;;;;;;;8.03;7.23;;;5.00;99.90;;;;;;5070036;28;20446;-39
2022/01/19 03:56:53;;;;;;;6.83;6.13;;;4.90;99.90;;;;;;5069548;28;20459;-39
2022/01/19 03:59:18;;;;;;;8.50;7.60;;;4.70;99.90;;;;;;5067938;28;20427;-41
2022/01/19 04:01:44;;;;;;;7.77;6.93;;;4.70;99.90;;;;;;5068799;28;20812;-39
2022/01/19 04:07:08;;;;;;;7.10;6.40;;;4.70;99.90;;;;;;5064946;28;20185;-42
2022/01/19 04:09:39;;;;;;;9.43;7.73;;;4.80;99.90;;;;;;5069142;28;20435;-40
2022/01/19 04:12:07;;;;;;;8.83;7.90;;;4.70;99.90;;;;;;5069524;28;20435;-39
2022/01/19 04:14:34;;;;;;;9.93;8.80;;;4.90;99.90;;;;;;5081475;28;20435;-39
2022/01/19 04:17:06;;;;;;;9.83;8.87;;;4.90;99.90;;;;;;5089678;28;20431;-39
2022/01/19 04:19:46;;;;;;;10.43;9.33;;;5.00;99.90;;;;;;5053735;28;20931;-40
2022/01/19 04:22:18;;;;;;;10.23;9.23;;;5.00;99.90;;;;;;5063470;28;20588;-39
2022/01/19 04:24:45;;;;;;;10.67;9.70;;;5.00;99.90;;;;;;5069182;28;20507;-43
2022/01/19 04:29:51;;;;;;;10.87;9.00;;;5.00;99.90;;;;;;5068486;28;20427;-40
2022/01/19 04:32:22;;;;;;;10.87;9.77;;;4.90;99.90;;;;;;5069086;28;20458;-39
2022/01/19 04:34:49;;;;;;;9.83;8.80;;;5.20;99.90;;;;;;5055101;28;20426;-40
2022/01/19 05:04:08;;;;;;;9.80;8.90;;;5.30;99.90;;;;;;5056739;28;20436;-39
2022/01/19 05:06:39;;;;;;;9.77;8.80;;;5.30;99.90;;;;;;5067442;28;20446;-40
2022/01/19 05:09:23;;;;;;;9.00;8.20;;;5.30;99.90;;;;;;5068029;28;20485;-40
2022/01/19 05:14:33;;;;;;;8.80;8.00;;;5.30;99.90;;;;;;5059710;28;20435;-40
2022/01/19 05:16:59;;;;;;;8.20;7.50;;;5.50;99.90;;;;;;5068140;28;20435;-41
2022/01/19 05:19:25;;;;;;;9.20;8.40;;;5.30;99.90;;;;;;5055682;28;20675;-39
2022/01/19 05:21:51;;;;;;;8.30;7.53;;;5.40;99.90;;;;;;5067265;28;20266;-40
2022/01/19 05:24:16;;;;;;;9.03;8.23;;;5.40;99.90;;;;;;5068098;28;20291;-40
2022/01/19 05:26:42;;;;;;;9.40;8.53;;;5.40;99.90;;;;;;5067821;28;20189;-41
2022/01/19 05:29:08;;;;;;;7.80;7.10;;;5.50;99.90;;;;;;5068140;28;20193;-39
2022/01/19 05:31:34;;;;;;;7.00;6.40;;;5.50;99.90;;;;;;5067238;28;20443;-39
2022/01/19 05:34:00;;;;;;;7.53;6.83;;;5.60;99.90;;;;;;5058934;28;20439;-41
2022/01/19 05:36:26;;;;;;;7.47;6.83;;;5.30;99.90;;;;;;5065971;28;20254;-40
2022/01/19 05:38:52;;;;;;;7.63;6.97;;;5.30;99.90;;;;;;5068028;28;20950;-40
2022/01/19 05:41:17;;;;;;;8.47;7.67;;;5.40;99.90;;;;;;5066786;28;20217;-41
2022/01/19 05:43:43;;;;;;;7.57;6.93;;;5.50;99.90;;;;;;5067885;28;20250;-39
2022/01/19 05:46:09;;;;;;;8.53;7.83;;;5.50;99.90;;;;;;5062379;28;20263;-39
2022/01/19 05:48:35;;;;;;;8.33;7.63;;;5.60;99.90;;;;;;5059580;28;20582;-40
2022/01/19 05:51:00;;;;;;;8.63;7.90;;;5.50;99.90;;;;;;5064483;28;20562;-40
2022/01/19 05:53:26;;;;;;;7.63;6.93;;;5.50;99.90;;;;;;5068059;28;20193;-39
2022/01/19 05:55:52;;;;;;;8.40;7.70;;;5.60;99.90;;;;;;5067387;28;20275;-39
2022/01/19 05:58:17;;;;;;;8.90;8.10;;;5.50;99.90;;;;;;5078802;28;20185;-40
2022/01/19 06:00:43;;;;;;;8.20;7.60;;;5.50;99.90;;;;;;5074949;28;20270;-39
2022/01/19 06:03:09;;;;;;;8.60;7.80;;;5.50;99.90;;;;;;5064505;28;20622;-39
2022/01/19 06:05:34;;;;;;;8.23;7.53;;;5.50;99.90;;;;;;5062118;28;20193;-40
2022/01/19 06:08:12;;;;;;;8.23;7.53;;;5.40;99.90;;;;;;5067632;28;20254;-39
2022/01/19 06:10:44;;;;;;;8.60;7.90;;;5.50;99.90;;;;;;5066400;28;20273;-41
2022/01/19 06:13:11;;;;;;;8.50;7.50;;;5.60;99.90;;;;;;5066724;28;20439;-39
2022/01/19 06:15:37;;;;;;;6.77;6.27;;;5.30;99.90;;;;;;5067123;28;20844;-39
2022/01/19 06:18:03;;;;;;;7.33;6.73;;;5.40;99.90;;;;;;5065656;28;20428;-39
2022/01/19 06:20:29;;;;;;;8.43;7.27;;;5.40;99.90;;;;;;5058442;28;20388;-38
2022/01/19 06:22:55;;;;;;;8.47;7.60;;;5.40;99.90;;;;;;5066096;28;20414;-39
2022/01/19 06:25:21;;;;;;;7.33;6.70;;;5.50;99.90;;;;;;5053878;28;20436;-40
2022/01/19 06:27:47;;;;;;;8.07;7.37;;;5.50;99.90;;;;;;5066398;28;20492;-39
2022/01/19 06:30:13;;;;;;;7.20;6.60;;;5.40;99.90;;;;;;5060543;28;20277;-39
2022/01/19 06:32:40;;;;;;;6.87;6.27;;;5.40;99.90;;;;;;5057204;28;20226;-39
2022/01/19 06:35:08;;;;;;;6.63;6.13;;;5.60;99.90;;;;;;5055437;28;20948;-40
2022/01/19 06:37:34;;;;;;;6.10;5.60;;;5.30;99.90;;;;;;5065801;28;20488;-39
2022/01/19 06:40:00;;;;;;;6.47;5.97;;;5.40;99.90;;;;;;5064382;28;20444;-39
2022/01/19 06:42:26;;;;;;;8.10;7.40;;;5.40;99.90;;;;;;5065701;28;20494;-39
2022/01/19 06:44:51;;;;;;;7.00;6.40;;;5.50;99.90;;;;;;5068896;28;20427;-40
2022/01/19 06:47:17;;;;;;;6.70;6.10;;;5.40;99.90;;;;;;5070617;28;20493;-39
2022/01/19 06:49:43;;;;;;;7.57;5.80;;;5.20;99.90;;;;;;5064696;28;20188;-39
2022/01/19 06:52:09;;;;;;;6.90;6.30;;;5.40;99.90;;;;;;5070203;28;20200;-39
2022/01/19 06:54:35;;;;;;;7.00;6.40;;;5.40;99.90;;;;;;5071101;28;20203;-39
2022/01/19 06:57:01;;;;;;;6.60;6.10;;;5.30;99.90;;;;;;5069764;28;20525;-39
2022/01/19 06:59:26;;;;;;;8.40;6.60;;;5.60;99.90;;;;;;5067994;28;20855;-40
2022/01/19 07:01:52;;;;;;;6.80;6.00;;;5.70;99.90;;;;;;5068509;28;20216;-39
2022/01/19 07:04:19;;;;;;;6.77;6.17;;;5.60;99.90;;;;;;5060373;28;20284;-39
2022/01/19 07:06:44;;;;;;;6.70;5.63;;;5.40;99.90;;;;;;5063057;28;20632;-41
2022/01/19 07:09:10;;;;;;;6.73;6.17;;;5.50;99.90;;;;;;5069824;28;20433;-40
2022/01/19 07:11:36;;;;;;;6.67;6.07;;;5.50;99.90;;;;;;5069013;28;20601;-39
2022/01/19 07:14:06;;;;;;;6.30;5.73;;;5.40;99.90;;;;;;5077458;28;20267;-40
2022/01/19 07:16:32;;;;;;;7.33;6.63;;;5.50;99.90;;;;;;5083541;28;20438;-39
2022/01/19 07:18:57;;;;;;;7.57;6.87;;;5.20;99.90;;;;;;5068996;28;20423;-43
2022/01/19 07:21:23;;;;;;;6.47;5.70;;;5.40;99.90;;;;;;5068259;28;20745;-39
2022/01/19 07:23:49;;;;;;;6.30;5.70;;;5.40;99.90;;;;;;5070703;28;20426;-40
2022/01/19 07:26:15;;;;;;;6.83;6.10;;;5.30;99.90;;;;;;5069070;28;20196;-40
2022/01/19 07:28:41;;;;;;;6.90;6.20;;;5.20;99.90;;;;;;5070700;28;20501;-39
2022/01/19 07:31:06;;;;;;;6.73;6.13;;;5.50;99.90;;;;;;5069601;28;20628;-39
2022/01/19 07:33:32;;;;;;;6.63;6.00;;;5.40;99.90;;;;;;5069406;28;20188;-39
2022/01/19 07:35:58;;;;;;;7.20;6.60;;;5.40;99.90;;;;;;5064168;28;20204;-39
2022/01/19 07:38:26;;;;;;;7.83;7.13;;;5.40;99.90;;;;;;5069807;28;20415;-41
2022/01/19 07:40:52;;;;;;;8.20;7.40;;;5.40;99.90;;;;;;5069937;28;20474;-39
2022/01/19 07:43:18;;;;;;;8.63;7.80;;;5.40;99.90;;;;;;5071299;28;20415;-39
2022/01/19 07:45:43;;;;;;;8.27;7.47;;;5.50;99.90;;;;;;5071962;28;20419;-40
2022/01/19 07:48:10;;;;;;;7.37;6.70;;;5.30;99.90;;;;;;5072556;28;20192;-41
2022/01/19 07:50:36;;;;;;;7.70;6.87;;;5.20;99.90;;;;;;5058379;28;20207;-39
2022/01/19 07:53:02;;;;;;;9.30;7.47;;;5.10;99.90;;;;;;5069296;28;20849;-42
2022/01/19 07:55:28;;;;;;;7.13;6.53;;;5.50;99.90;;;;;;5070023;28;20453;-39
2022/01/19 07:57:53;;;;;;;11.33;7.47;;;5.50;99.90;;;;;;5068827;28;20792;-40
2022/01/19 08:00:19;;;;;;;9.00;8.20;;;5.40;99.90;;;;;;5067837;28;20217;-40
2022/01/19 08:02:46;;;;;;;8.30;7.30;;;5.40;99.90;;;;;;5071442;28;20267;-41
2022/01/19 08:05:12;;;;;;;8.60;7.80;;;5.60;99.90;;;;;;5059496;28;21072;-39
2022/01/19 08:07:38;;;;;;;8.50;7.80;;;5.40;99.90;;;;;;5068846;28;20430;-39
2022/01/19 08:10:06;;;;;;;7.67;6.97;;;5.40;99.90;;;;;;5069343;28;20949;-39
2022/01/19 08:12:32;;;;;;;7.90;7.17;;;5.30;99.90;;;;;;5071105;28;20441;-40
2022/01/19 08:14:59;;;;;;;7.47;6.67;;;5.40;99.90;;;;;;5068813;28;20720;-39
2022/01/19 08:17:28;;;;;;;7.57;6.80;;;5.30;99.90;;;;;;5076668;28;20694;-39
2022/01/19 08:19:55;;;;;;;8.80;7.90;;;5.40;99.90;;;;;;5071690;28;20439;-39
2022/01/19 08:22:21;;;;;;;8.70;7.90;;;5.40;99.90;;;;;;5066196;28;20834;-42
2022/01/19 08:24:47;;;;;;;8.80;8.00;;;5.30;99.90;;;;;;5069325;28;20430;-39
2022/01/19 08:27:13;;;;;;;9.30;8.40;;;5.30;99.90;;;;;;5069079;28;20419;-39
2022/01/19 08:29:38;;;;;;;9.97;8.47;;;5.30;99.90;;;;;;5067216;28;20193;-39
2022/01/19 08:32:06;;;;;;;9.67;8.67;;;5.20;99.90;;;;;;5068599;28;21000;-39
2022/01/19 08:34:32;;;;;;;11.63;9.20;;;5.20;99.90;;;;;;5071603;28;20174;-40
2022/01/19 08:36:59;;;;;;;8.87;7.97;;;5.30;99.90;;;;;;5062732;28;20416;-39
2022/01/19 08:39:25;;;;;;;9.70;8.80;;;5.20;99.90;;;;;;5068876;28;20506;-40
2022/01/19 08:41:52;;;;;;;10.50;8.70;;;5.10;99.90;;;;;;5068577;28;20549;-39
2022/01/19 08:44:18;;;;;;;9.13;8.23;;;5.30;99.90;;;;;;5070907;28;20240;-39
2022/01/19 08:46:44;;;;;;;9.00;8.10;;;5.10;99.90;;;;;;5068784;28;20426;-39
2022/01/19 08:49:10;;;;;;;8.87;8.07;;;5.40;99.90;;;;;;5065995;28;20961;-40
2022/01/19 08:51:36;;;;;;;9.47;8.43;;;5.40;99.90;;;;;;5059573;28;20186;-40
2022/01/19 08:54:03;;;;;;;10.90;8.77;;;5.30;99.90;;;;;;5068709;28;20420;-39
2022/01/19 08:56:30;;;;;;;14.47;10.60;;;5.40;99.90;;;;;;5068371;28;20515;-39
2022/01/19 08:58:55;;;;;;;13.50;10.53;;;5.10;99.90;;;;;;5067183;28;20423;-40
2022/01/19 09:01:22;;;;;;;11.40;10.20;;;5.30;99.90;;;;;;5067529;28;20829;-39
2022/01/19 09:03:47;;;;;;;12.67;11.20;;;5.40;99.90;;;;;;5068721;28;20246;-39
2022/01/19 09:06:13;;;;;;;12.70;10.90;;;5.20;99.90;;;;;;5060520;28;20813;-39
2022/01/19 09:08:39;;;;;;;13.20;11.27;;;5.20;99.90;;;;;;5067966;28;20237;-39
2022/01/19 09:11:06;;;;;;;17.37;12.93;;;5.10;99.90;;;;;;5068057;28;20253;-40
2022/01/19 09:13:32;;;;;;;17.57;12.60;;;5.00;99.90;;;;;;5071082;28;20434;-39
2022/01/19 09:15:58;;;;;;;16.53;12.60;;;4.90;99.90;;;;;;5088106;28;20422;-39
2022/01/19 09:18:24;;;;;;;14.67;12.33;;;5.10;99.90;;;;;;5087240;28;20446;-39
2022/01/19 09:20:50;;;;;;;17.60;12.47;;;5.10;99.90;;;;;;5066473;28;20236;-40
2022/01/19 09:23:16;;;;;;;18.73;12.73;;;5.10;99.90;;;;;;5067869;28;20468;-40
2022/01/19 09:25:41;;;;;;;16.73;12.83;;;5.00;99.90;;;;;;5068219;28;20267;-39
2022/01/19 09:28:08;;;;;;;15.07;12.63;;;5.00;99.90;;;;;;5067790;28;20450;-41
2022/01/19 09:30:35;;;;;;;17.20;13.30;;;5.00;99.90;;;;;;5067275;28;20345;-42
2022/01/19 09:33:09;;;;;;;17.30;13.10;;;5.00;99.90;;;;;;5067976;28;20529;-40
2022/01/19 09:38:40;;;;;;;17.47;12.23;;;4.90;99.90;;;;;;5045642;28;20698;-40
2022/01/19 09:41:07;;;;;;;14.77;12.47;;;4.90;99.90;;;;;;5067026;28;20474;-39
2022/01/19 09:43:35;;;;;;;15.83;12.33;;;5.00;99.90;;;;;;5067850;28;20922;-40
2022/01/19 09:46:02;;;;;;;15.00;12.50;;;5.00;99.90;;;;;;5068000;28;20427;-39
2022/01/19 09:48:29;;;;;;;24.53;13.40;;;5.10;99.90;;;;;;5067831;28;20423;-39
2022/01/19 09:50:56;;;;;;;17.83;12.60;;;5.20;99.90;;;;;;5055875;28;20435;-39
2022/01/19 09:53:23;;;;;;;19.60;13.20;;;5.00;99.90;;;;;;5067173;28;20493;-39
2022/01/19 09:55:49;;;;;;;18.30;12.97;;;5.10;99.90;;;;;;5067577;28;20450;-39
2022/01/19 09:58:17;;;;;;;15.67;12.70;;;5.00;99.90;;;;;;5066316;28;20920;-39
2022/01/19 10:00:43;;;;;;;15.90;12.70;;;4.90;99.90;;;;;;5067194;28;20466;-39
2022/01/19 10:03:19;;;;;;;14.70;11.10;;;4.90;99.90;;;;;;5067240;28;20424;-41
2022/01/19 10:06:13;;;;;;;15.80;11.80;;;4.80;99.90;;;;;;5058605;28;20431;-39
2022/01/19 10:08:46;;;;;;;18.97;12.40;;;5.00;99.90;;;;;;5065279;28;20427;-40
2022/01/19 10:16:58;;;;;;;15.37;12.23;;;5.00;99.90;;;;;;5065540;28;20819;-40
2022/01/19 10:17:01;;;;;;;15.30;12.30;;;5.00;99.90;;;;;;5087504;28;20926;-39
2022/01/19 10:19:45;;;;;;;23.33;14.00;;;5.20;99.90;;;;;;5086573;28;20433;-39
2022/01/19 10:22:27;;;;;;;16.40;12.23;;;5.20;99.90;;;;;;5056373;28;20934;-40
2022/01/19 10:24:57;;;;;;;17.80;12.43;;;5.00;99.90;;;;;;5062643;28;20423;-39
2022/01/19 10:27:45;;;;;;;17.30;11.80;;;5.00;99.90;;;;;;5066189;28;20423;-39
2022/01/19 10:30:21;;;;;;;15.87;11.53;;;5.20;99.90;;;;;;5066611;28;20427;-39
2022/01/19 10:32:59;;;;;;;13.87;10.87;;;5.30;99.90;;;;;;5066058;28;20466;-40
2022/01/19 10:35:30;;;;;;;17.10;13.13;;;5.10;99.90;;;;;;5060458;28;20699;-39
2022/01/19 10:38:25;;;;;;;14.10;11.27;;;5.00;99.90;;;;;;5065121;28;20411;-41
2022/01/19 10:41:03;;;;;;;16.27;11.93;;;5.20;99.90;;;;;;5077547;28;20471;-39
2022/01/19 10:43:31;;;;;;;13.17;10.67;;;5.30;99.90;;;;;;5082535;28;20449;-40
2022/01/19 10:46:01;;;;;;;16.60;12.63;;;5.10;99.90;;;;;;5083630;28;20411;-41
2022/01/19 10:48:45;;;;;;;17.03;13.00;;;5.00;99.90;;;;;;5087263;28;20807;-40
2022/01/19 10:51:13;;;;;;;18.47;12.60;;;5.20;99.90;;;;;;5063056;28;20440;-39
2022/01/19 10:53:43;;;;;;;17.73;12.50;;;5.40;99.90;;;;;;5066267;28;20415;-40
2022/01/19 10:56:26;;;;;;;17.33;12.03;;;5.40;99.90;;;;;;5065648;28;20561;-38
2022/01/19 10:58:58;;;;;;;19.43;14.20;;;5.40;99.90;;;;;;5065140;28;20477;-39
2022/01/19 11:01:39;;;;;;;15.73;11.47;;;5.30;99.90;;;;;;5065000;28;20494;-40
2022/01/19 11:04:27;;;;;;;15.20;11.50;;;5.10;99.90;;;;;;5046033;28;20923;-40
2022/01/19 11:06:58;;;;;;;17.33;12.23;;;5.30;99.90;;;;;;5056133;28;20665;-40
2022/01/19 11:09:27;;;;;;;16.10;11.83;;;5.40;99.90;;;;;;5065428;28;20419;-39
2022/01/19 11:12:07;;;;;;;16.37;12.77;;;5.40;99.90;;;;;;5066352;28;20423;-41
2022/01/19 11:14:35;;;;;;;15.80;12.60;;;5.40;99.90;;;;;;5058386;28;20937;-40
2022/01/19 11:17:02;;;;;;;17.53;12.57;;;5.60;99.90;;;;;;5065510;28;20466;-40
2022/01/19 11:19:28;;;;;;;16.90;12.73;;;5.40;99.90;;;;;;5066671;28;20430;-40
2022/01/19 11:22:16;;;;;;;18.80;13.00;;;5.50;99.90;;;;;;5054747;28;20796;-39
2022/01/19 11:25:23;;;;;;;17.70;12.00;;;5.70;99.90;;;;;;5066253;28;20422;-39
2022/01/19 11:27:51;;;;;;;15.20;12.20;;;5.90;99.90;;;;;;5007078;28;20432;-40
2022/01/19 11:30:26;;;;;;;17.33;12.77;;;5.50;99.90;;;;;;5019979;28;20745;-39
2022/01/19 11:33:15;;;;;;;18.67;12.80;;;5.50;99.90;;;;;;5037451;28;20978;-39
2022/01/19 11:35:47;;;;;;;17.83;12.70;;;5.50;99.90;;;;;;5062868;28;20431;-39
2022/01/19 11:38:41;;;;;;;18.43;13.07;;;5.50;99.90;;;;;;5066866;28;20781;-40
2022/01/19 11:41:06;;;;;;;15.77;12.73;;;5.50;99.90;;;;;;5065618;28;20872;-40
2022/01/19 11:43:32;;;;;;;18.30;13.67;;;5.40;99.90;;;;;;5070198;28;20564;-41
2022/01/19 11:46:00;;;;;;;16.17;12.70;;;5.30;99.90;;;;;;5069623;28;20185;-39
2022/01/19 11:48:31;;;;;;;14.30;12.50;;;5.30;99.90;;;;;;5069076;28;20929;-39
2022/01/19 11:51:28;;;;;;;15.20;12.00;;;5.30;99.90;;;;;;5062941;28;20808;-40
2022/01/19 11:54:19;;;;;;;16.80;12.70;;;5.50;99.90;;;;;;5064691;28;21172;-39
2022/01/19 11:57:02;;;;;;;16.87;12.50;;;5.40;99.90;;;;;;5069624;28;20501;-39
2022/01/19 11:59:53;;;;;;;17.20;13.03;;;5.40;99.90;;;;;;5070204;28;20435;-40
2022/01/19 12:02:26;;;;;;;17.23;13.17;;;5.40;99.90;;;;;;5069495;28;20471;-39
2022/01/19 12:05:13;;;;;;;16.20;12.87;;;5.50;99.90;;;;;;5069752;28;20776;-39
2022/01/19 12:07:41;;;;;;;18.20;12.57;;;5.50;99.90;;;;;;5061562;28;20423;-39
2022/01/19 12:10:10;;;;;;;17.90;13.00;;;5.60;99.90;;;;;;5067800;28;20468;-42
2022/01/19 12:12:44;;;;;;;18.33;14.87;;;5.50;99.90;;;;;;5069458;28;20861;-39
2022/01/19 12:15:52;;;;;;;18.13;13.47;;;5.50;99.90;;;;;;5074900;28;20423;-42
2022/01/19 12:18:44;;;;;;;16.80;11.30;;;5.40;99.90;;;;;;5089990;28;20446;-39
2022/01/19 12:21:13;;;;;;;22.93;14.67;;;5.50;99.90;;;;;;5073077;28;20558;-39
2022/01/19 12:23:40;;;;;;;17.57;14.40;;;5.20;99.90;;;;;;5067839;28;20469;-39
2022/01/19 12:26:09;;;;;;;21.00;14.23;;;5.40;99.90;;;;;;5068247;28;20426;-40
2022/01/19 12:28:47;;;;;;;18.47;14.97;;;5.40;99.90;;;;;;5069566;28;20423;-39
2022/01/19 12:31:33;;;;;;;16.67;13.27;;;5.40;99.90;;;;;;5069175;28;20500;-40
2022/01/19 12:34:02;;;;;;;17.53;13.47;;;5.50;99.90;;;;;;5068927;28;20451;-39
2022/01/19 12:37:00;;;;;;;17.20;13.13;;;5.50;99.90;;;;;;5063196;28;20984;-39
2022/01/19 12:39:26;;;;;;;16.37;13.07;;;5.40;99.90;;;;;;5061346;28;20976;-39
2022/01/19 12:41:55;;;;;;;17.47;12.60;;;5.50;99.90;;;;;;5067433;28;20604;-41
2022/01/19 12:44:53;;;;;;;18.50;13.87;;;5.30;99.90;;;;;;5069009;28;20185;-40
2022/01/19 12:47:24;;;;;;;18.50;13.57;;;5.40;99.90;;;;;;5069253;28;20419;-40
2022/01/19 12:49:56;;;;;;;19.00;12.33;;;5.40;99.90;;;;;;5068606;28;20420;-39
2022/01/19 12:52:30;;;;;;;17.37;13.47;;;5.30;99.90;;;;;;5057779;28;20440;-39
2022/01/19 12:55:00;;;;;;;16.47;13.47;;;5.10;99.90;;;;;;5068859;28;21164;-39
2022/01/19 12:57:29;;;;;;;19.63;13.73;;;5.50;99.90;;;;;;5065889;28;21025;-39
2022/01/19 12:59:55;;;;;;;19.37;14.30;;;5.40;99.90;;;;;;5068222;28;20520;-39
2022/01/19 13:02:28;;;;;;;17.93;13.80;;;5.40;99.90;;;;;;5068760;28;20470;-39
2022/01/19 13:05:10;;;;;;;17.90;13.53;;;5.40;99.90;;;;;;5068912;28;20472;-39
2022/01/19 13:07:43;;;;;;;16.40;13.43;;;5.50;99.90;;;;;;5061950;28;20826;-39
2022/01/19 13:10:29;;;;;;;19.40;14.17;;;5.50;99.90;;;;;;5067833;28;20460;-41
2022/01/19 13:13:08;;;;;;;17.97;13.07;;;5.40;99.90;;;;;;5068580;28;20681;-39
2022/01/19 13:15:52;;;;;;;17.10;12.97;;;5.10;99.90;;;;;;5080659;28;20422;-39
2022/01/19 13:18:36;;;;;;;15.73;12.70;;;5.30;99.90;;;;;;5088603;28;21073;-39
2022/01/19 13:21:17;;;;;;;16.83;12.93;;;5.40;99.90;;;;;;5082114;28;20460;-39
2022/01/19 13:24:04;;;;;;;19.80;14.20;;;5.40;99.90;;;;;;5063030;28;20419;-40
2022/01/19 13:26:39;;;;;;;25.73;14.67;;;5.40;99.90;;;;;;5068010;28;20419;-39
2022/01/19 13:29:34;;;;;;;21.97;14.10;;;5.50;99.90;;;;;;5067986;28;20423;-41
2022/01/19 13:32:06;;;;;;;17.17;15.00;;;5.40;99.90;;;;;;5067896;28;20458;-39
2022/01/19 13:34:52;;;;;;;17.87;13.80;;;5.50;99.90;;;;;;5067798;28;20554;-39
2022/01/19 13:37:18;;;;;;;16.07;13.03;;;5.20;99.90;;;;;;5055094;28;20516;-39
2022/01/19 13:39:44;;;;;;;19.17;15.37;;;5.40;99.90;;;;;;5067129;28;20510;-39
2022/01/19 13:42:10;;;;;;;21.50;14.90;;;5.40;99.90;;;;;;5067752;28;20558;-39
2022/01/19 13:44:48;;;;;;;18.90;15.33;;;5.50;99.90;;;;;;5067993;28;20189;-38
2022/01/19 13:47:25;;;;;;;19.57;14.13;;;5.30;99.90;;;;;;5068289;28;20431;-39
2022/01/19 13:49:54;;;;;;;20.57;15.23;;;5.30;99.90;;;;;;5067106;28;20423;-39
2022/01/19 13:52:25;;;;;;;20.93;13.87;;;5.50;99.90;;;;;;5059021;28;20461;-42
2022/01/19 13:54:51;;;;;;;20.20;14.80;;;5.50;99.90;;;;;;5065944;28;20423;-39
2022/01/19 13:57:30;;;;;;;19.27;15.53;;;5.40;99.90;;;;;;5066079;28;20457;-39
2022/01/19 14:00:15;;;;;;;18.10;14.00;;;5.40;99.90;;;;;;5067138;28;20426;-40
2022/01/19 14:02:53;;;;;;;19.30;15.50;;;5.30;99.90;;;;;;5055567;28;20445;-40
2022/01/19 14:05:18;;;;;;;21.10;15.50;;;5.40;99.90;;;;;;5067613;28;20418;-39
2022/01/19 14:07:47;;;;;;;22.30;15.90;;;5.30;99.90;;;;;;5059809;28;20423;-40
2022/01/19 14:10:13;;;;;;;22.33;15.80;;;5.50;99.90;;;;;;5066799;28;20189;-40
2022/01/19 14:12:38;;;;;;;19.23;15.00;;;5.50;99.90;;;;;;5066055;28;20434;-39
2022/01/19 14:15:09;;;;;;;17.07;13.47;;;5.50;99.90;;;;;;5082058;28;20671;-40
2022/01/19 14:17:39;;;;;;;22.30;14.77;;;5.60;99.90;;;;;;5087715;28;20557;-39
2022/01/19 14:20:22;;;;;;;18.43;13.93;;;5.50;99.90;;;;;;5086723;28;20513;-39
2022/01/19 14:22:48;;;;;;;20.80;14.50;;;5.20;99.90;;;;;;5060108;28;20428;-39
2022/01/19 14:25:18;;;;;;;21.53;14.80;;;5.20;99.90;;;;;;5066578;28;20836;-39
2022/01/19 14:27:52;;;;;;;24.00;15.97;;;5.00;99.90;;;;;;5065366;28;20403;-40
2022/01/19 14:30:28;;;;;;;21.50;14.53;;;5.00;99.90;;;;;;5066667;28;20430;-39
2022/01/19 14:33:03;;;;;;;22.90;16.50;;;5.10;99.90;;;;;;5065724;28;20484;-39